Time;durP1;ratioP1;P1;durP2;ratioP2;P2;SDS_P1;SDS_P2;PMS_P1;PMS_P2;Temp;Humidity;BMP_temperature;BMP_pressure;BME280_temperature;BME280_humidity;BME280_pressure;Samples;Min_cycle;Max_cycle;Signal;HPM_P1;HPM_P2
2021/09/23 00:01:04;;;;;;;5.82;5.25;;;;;;;15.69;64.94;101490.03;5069100;28;20024;-45
2021/09/23 00:05:57;;;;;;;6.15;5.55;;;;;;;15.67;64.92;101500.69;5068142;28;20020;-44
2021/09/23 00:08:23;;;;;;;5.63;4.95;;;;;;;15.67;64.64;101495.38;5069982;28;20028;-44
2021/09/23 00:10:49;;;;;;;5.22;4.53;;;;;;;15.67;64.80;101511.31;5069819;28;20103;-44
2021/09/23 00:13:15;;;;;;;5.93;5.38;;;;;;;15.67;64.76;101502.50;5071371;28;20174;-44
2021/09/23 00:15:41;;;;;;;5.93;4.97;;;;;;;15.66;64.81;101514.91;5070925;28;20085;-44
2021/09/23 00:18:13;;;;;;;5.65;4.68;;;;;;;15.66;64.85;101512.25;5070621;28;20024;-45
2021/09/23 00:20:42;;;;;;;5.50;5.00;;;;;;;15.64;64.83;101501.63;5072906;28;20040;-44
2021/09/23 00:23:08;;;;;;;6.88;5.18;;;;;;;15.65;64.85;101508.69;5075004;28;20031;-44
2021/09/23 00:25:34;;;;;;;5.85;4.90;;;;;;;15.64;64.67;101503.44;5073011;28;20039;-45
2021/09/23 00:28:01;;;;;;;5.55;5.10;;;;;;;15.61;64.80;101498.16;5072425;28;20035;-44
2021/09/23 00:30:27;;;;;;;5.18;4.68;;;;;;;15.61;64.96;101490.19;5072298;28;20130;-44
2021/09/23 00:32:54;;;;;;;7.97;5.30;;;;;;;15.61;64.64;101484.88;5074651;28;20020;-44
2021/09/23 00:35:20;;;;;;;6.28;5.68;;;;;;;15.60;64.73;101481.31;5071218;28;20023;-45
2021/09/23 00:37:47;;;;;;;5.55;5.05;;;;;;;15.60;64.80;101477.75;5057048;28;20055;-44
2021/09/23 00:40:13;;;;;;;5.97;5.25;;;;;;;15.59;64.80;101470.69;5073249;28;20024;-44
2021/09/23 00:42:41;;;;;;;5.05;4.55;;;;;;;15.59;64.85;101471.59;5074523;28;20031;-44
2021/09/23 00:45:08;;;;;;;5.50;5.00;;;;;;;15.58;64.71;101469.84;5072906;28;20061;-45
2021/09/23 00:47:34;;;;;;;5.28;4.45;;;;;;;15.58;64.72;101471.63;5071642;28;20039;-44
2021/09/23 00:50:00;;;;;;;5.43;4.93;;;;;;;15.58;64.74;101467.19;5070182;28;20028;-44
2021/09/23 00:52:31;;;;;;;6.00;5.35;;;;;;;15.57;64.77;101462.75;5072829;28;20103;-44
2021/09/23 00:54:58;;;;;;;4.93;4.53;;;;;;;15.56;64.70;101481.38;5072732;28;20016;-44
2021/09/23 00:57:24;;;;;;;4.78;4.38;;;;;;;15.55;64.74;101469.91;5067833;28;20039;-45
2021/09/23 00:59:55;;;;;;;5.53;5.03;;;;;;;15.55;64.76;101463.69;5076131;28;20408;-44
2021/09/23 01:02:22;;;;;;;5.80;5.20;;;;;;;15.53;64.69;101455.72;5072913;28;20036;-44
2021/09/23 01:04:49;;;;;;;5.95;5.28;;;;;;;15.54;64.75;101451.31;5076396;28;20039;-44
2021/09/23 01:07:18;;;;;;;4.95;4.45;;;;;;;15.52;64.69;101449.56;5070322;28;20036;-44
2021/09/23 01:09:54;;;;;;;5.35;4.85;;;;;;;15.52;64.62;101448.66;5056474;28;20028;-44
2021/09/23 01:12:22;;;;;;;5.68;4.97;;;;;;;15.50;64.74;101442.50;5071117;28;20618;-44
2021/09/23 01:14:48;;;;;;;5.57;5.07;;;;;;;15.50;64.73;101448.69;5072660;28;20096;-44
2021/09/23 01:17:14;;;;;;;7.88;4.80;;;;;;;15.49;64.60;101438.97;5073838;28;20020;-44
2021/09/23 01:19:41;;;;;;;6.07;5.57;;;;;;;15.49;64.56;101444.28;5065995;28;20032;-44
2021/09/23 01:22:07;;;;;;;5.55;5.05;;;;;;;15.48;64.65;101441.66;5071359;28;20051;-44
2021/09/23 01:24:36;;;;;;;5.25;4.75;;;;;;;15.49;64.48;101438.09;5069659;28;20052;-44
2021/09/23 01:27:02;;;;;;;5.32;4.70;;;;;;;15.49;64.59;101433.66;5072238;28;20091;-44
2021/09/23 01:29:28;;;;;;;5.10;4.60;;;;;;;15.47;64.57;101430.13;5071875;28;20024;-44
2021/09/23 01:31:54;;;;;;;5.82;4.72;;;;;;;15.46;64.54;101423.06;5072917;28;20047;-44
2021/09/23 01:34:20;;;;;;;5.40;4.90;;;;;;;15.47;64.54;101419.50;5073655;28;20020;-44
2021/09/23 01:36:46;;;;;;;6.00;4.78;;;;;;;15.45;64.71;101410.69;5061794;28;20028;-45
2021/09/23 01:39:20;;;;;;;4.97;4.55;;;;;;;15.46;64.56;101399.16;5073428;28;20043;-44
2021/09/23 01:41:46;;;;;;;5.32;4.82;;;;;;;15.45;64.63;101405.38;5072237;28;20063;-44
2021/09/23 01:44:12;;;;;;;6.18;5.30;;;;;;;15.44;64.71;101392.97;5068808;28;20039;-44
2021/09/23 01:46:38;;;;;;;6.10;5.28;;;;;;;15.43;64.52;101387.69;5074420;28;20416;-44
2021/09/23 01:49:04;;;;;;;6.63;5.60;;;;;;;15.43;64.56;101385.91;5070395;28;20036;-45
2021/09/23 01:51:30;;;;;;;5.85;5.28;;;;;;;15.42;64.67;101373.53;5068971;28;21508;-44
2021/09/23 01:53:56;;;;;;;6.45;4.97;;;;;;;15.42;64.73;101377.97;5071516;28;20036;-45
2021/09/23 01:56:21;;;;;;;5.80;5.22;;;;;;;15.41;64.38;101371.78;5071982;28;20031;-44
2021/09/23 01:58:47;;;;;;;5.95;5.30;;;;;;;15.40;64.65;101370.00;5071598;28;20024;-44
2021/09/23 02:01:13;;;;;;;6.25;5.40;;;;;;;15.40;64.58;101362.03;5073432;28;20025;-47
2021/09/23 02:03:39;;;;;;;6.97;6.28;;;;;;;15.39;64.55;101357.63;5069125;28;20120;-45
2021/09/23 02:06:05;;;;;;;6.20;5.65;;;;;;;15.38;64.71;101359.41;5071633;28;20020;-44
2021/09/23 02:08:31;;;;;;;6.15;5.55;;;;;;;15.37;64.76;101355.00;5072902;28;20036;-44
2021/09/23 02:10:57;;;;;;;6.70;5.82;;;;;;;15.36;64.55;101341.75;5070465;28;20020;-45
2021/09/23 02:13:23;;;;;;;6.95;6.28;;;;;;;15.35;64.63;101340.00;5073438;28;20024;-44
2021/09/23 02:15:50;;;;;;;8.18;5.90;;;;;;;15.35;64.63;101340.00;5072577;28;20048;-44
2021/09/23 02:18:17;;;;;;;7.57;5.90;;;;;;;15.35;64.61;101340.00;5068232;28;20036;-45
2021/09/23 02:20:42;;;;;;;6.80;5.95;;;;;;;15.33;64.67;101329.38;5064676;28;20033;-45
2021/09/23 02:23:09;;;;;;;6.10;5.47;;;;;;;15.32;64.64;101322.31;5071435;28;20043;-45
2021/09/23 02:25:35;;;;;;;8.25;6.75;;;;;;;15.33;64.36;101321.41;5071384;28;20029;-44
2021/09/23 02:28:01;;;;;;;7.15;6.45;;;;;;;15.31;64.31;101311.72;5054670;28;20504;-44
2021/09/23 02:30:28;;;;;;;7.45;6.30;;;;;;;15.31;64.50;101311.72;5070709;28;20032;-45
2021/09/23 02:32:54;;;;;;;9.18;7.30;;;;;;;15.31;64.32;101303.75;5075463;28;20114;-44
2021/09/23 02:35:20;;;;;;;8.93;6.38;;;;;;;15.31;64.37;101295.78;5071219;28;20104;-44
2021/09/23 02:37:46;;;;;;;8.02;7.20;;;;;;;15.29;64.17;101303.78;5067372;28;20024;-44
2021/09/23 02:40:12;;;;;;;7.50;6.45;;;;;;;15.29;64.29;101303.78;5073318;28;20031;-44
2021/09/23 02:42:38;;;;;;;7.82;7.13;;;;;;;15.27;64.17;101298.50;5058468;28;20366;-44
2021/09/23 02:45:05;;;;;;;7.88;6.63;;;;;;;15.28;64.15;101302.03;5074867;28;20035;-44
2021/09/23 02:47:31;;;;;;;6.78;6.10;;;;;;;15.26;64.25;101296.75;5071595;28;20036;-45
2021/09/23 02:49:57;;;;;;;7.90;7.07;;;;;;;15.26;64.18;101293.19;5067721;28;20033;-44
2021/09/23 02:52:23;;;;;;;7.65;6.50;;;;;;;15.26;64.18;101287.88;5069636;28;20028;-44
2021/09/23 02:54:49;;;;;;;7.07;6.38;;;;;;;15.25;64.21;101281.69;5070821;28;20106;-44
2021/09/23 02:57:14;;;;;;;10.32;6.75;;;;;;;15.24;64.06;101287.91;5070266;28;20052;-44
2021/09/23 02:59:41;;;;;;;8.10;6.97;;;;;;;15.25;64.34;101286.16;5070133;28;20074;-45
2021/09/23 03:02:07;;;;;;;6.82;6.13;;;;;;;15.23;64.29;101282.63;5070237;28;20028;-44
2021/09/23 03:04:33;;;;;;;7.35;6.20;;;;;;;15.23;64.30;101280.84;5054139;28;20025;-44
2021/09/23 03:06:58;;;;;;;6.88;6.18;;;;;;;15.22;64.27;101271.13;5072610;28;20525;-44
2021/09/23 03:09:24;;;;;;;6.75;5.95;;;;;;;15.21;64.01;101274.69;5067262;28;20028;-44
2021/09/23 03:11:50;;;;;;;8.20;6.93;;;;;;;15.20;64.26;101270.28;5054157;28;20074;-44
2021/09/23 03:14:16;;;;;;;7.00;6.30;;;;;;;15.20;64.32;101262.31;5071885;28;20028;-44
2021/09/23 03:16:42;;;;;;;7.65;6.18;;;;;;;15.19;64.08;101276.50;5070131;28;20494;-44
2021/09/23 03:19:08;;;;;;;8.32;7.20;;;;;;;15.18;64.16;101271.22;5066996;28;20031;-44
2021/09/23 03:21:34;;;;;;;7.88;7.15;;;;;;;15.18;64.31;101269.44;5068853;28;20028;-44
2021/09/23 03:24:00;;;;;;;7.10;6.20;;;;;;;15.17;64.31;101273.00;5069290;28;20108;-44
2021/09/23 03:26:26;;;;;;;8.25;6.78;;;;;;;15.17;64.26;101262.34;5072153;28;20029;-44
2021/09/23 03:28:52;;;;;;;7.43;6.63;;;;;;;15.16;64.39;101268.59;5057099;28;20020;-44
2021/09/23 03:31:17;;;;;;;7.90;5.88;;;;;;;15.16;64.48;101281.88;5067048;28;20425;-44
2021/09/23 03:33:43;;;;;;;6.95;6.20;;;;;;;15.16;64.49;101276.56;5056161;28;20028;-44
2021/09/23 03:36:09;;;;;;;9.10;6.55;;;;;;;15.16;65.01;101280.97;5056311;28;21345;-44
2021/09/23 03:38:35;;;;;;;7.95;7.15;;;;;;;15.14;64.40;101267.75;5068965;28;20588;-44
2021/09/23 03:41:01;;;;;;;8.93;6.90;;;;;;;15.14;64.72;101263.31;5066217;28;20024;-44
2021/09/23 03:43:26;;;;;;;8.70;6.38;;;;;;;15.14;64.59;101251.81;5068534;28;20035;-45
2021/09/23 03:45:53;;;;;;;9.00;7.05;;;;;;;15.12;64.47;101250.97;5054413;28;20036;-44
2021/09/23 03:48:22;;;;;;;8.18;6.45;;;;;;;15.12;65.10;101248.31;5063698;28;20044;-44
2021/09/23 03:50:48;;;;;;;8.10;7.30;;;;;;;15.11;64.96;101250.06;5067481;28;20048;-44
2021/09/23 03:53:15;;;;;;;7.13;6.50;;;;;;;15.10;64.61;101247.44;5071250;28;20099;-44
2021/09/23 03:55:40;;;;;;;7.43;6.75;;;;;;;15.09;65.09;101251.00;5073945;28;20377;-44
2021/09/23 03:58:06;;;;;;;7.63;6.78;;;;;;;15.09;65.37;101240.38;5074867;28;20024;-45
2021/09/23 04:00:32;;;;;;;7.72;6.90;;;;;;;15.08;65.42;101236.88;5074989;28;20028;-44
2021/09/23 04:02:58;;;;;;;6.97;6.28;;;;;;;15.09;65.44;101227.09;5074978;28;20023;-44
2021/09/23 04:05:24;;;;;;;8.15;7.18;;;;;;;15.06;65.44;101227.16;5072691;28;20494;-45
2021/09/23 04:07:49;;;;;;;7.43;6.65;;;;;;;15.07;65.45;101218.31;5071292;28;20028;-44
2021/09/23 04:10:15;;;;;;;8.77;7.30;;;;;;;15.06;65.51;101222.72;5075347;28;20066;-44
2021/09/23 04:12:41;;;;;;;6.85;6.15;;;;;;;15.06;65.52;101221.84;5071973;28;20020;-44
2021/09/23 04:15:08;;;;;;;8.55;6.53;;;;;;;15.04;65.58;101208.59;5071374;28;20500;-44
2021/09/23 04:17:34;;;;;;;8.45;6.97;;;;;;;15.03;65.55;101212.16;5066511;28;20028;-44
2021/09/23 04:20:00;;;;;;;7.80;6.57;;;;;;;15.03;65.51;101203.34;5074360;28;20147;-45
2021/09/23 04:22:26;;;;;;;7.22;6.28;;;;;;;15.03;65.59;101208.63;5070238;28;20434;-44
2021/09/23 04:24:52;;;;;;;7.63;6.25;;;;;;;15.01;65.53;101203.34;5071890;28;20075;-44
2021/09/23 04:27:18;;;;;;;7.63;6.10;;;;;;;15.00;65.50;101212.22;5071941;28;20454;-44
2021/09/23 04:29:45;;;;;;;7.82;6.55;;;;;;;14.96;65.53;101195.47;5074367;28;20024;-44
2021/09/23 04:32:12;;;;;;;7.03;6.32;;;;;;;15.00;65.43;101212.22;5054813;28;20107;-45
2021/09/23 04:34:38;;;;;;;8.15;7.22;;;;;;;14.99;65.46;101206.03;5073754;28;20046;-45
2021/09/23 04:37:03;;;;;;;7.82;6.65;;;;;;;14.98;65.48;101204.25;5074052;28;20375;-45
2021/09/23 04:39:29;;;;;;;7.45;6.72;;;;;;;14.98;65.40;101198.09;5073071;28;20020;-44
2021/09/23 04:41:55;;;;;;;8.45;7.03;;;;;;;14.97;65.50;101188.38;5069179;28;20479;-45
2021/09/23 04:44:21;;;;;;;7.85;6.95;;;;;;;14.96;65.54;101190.16;5070527;28;20027;-44
2021/09/23 04:46:47;;;;;;;7.43;6.68;;;;;;;14.96;65.42;101190.16;5072622;28;20020;-44
2021/09/23 04:49:13;;;;;;;9.48;8.00;;;;;;;14.94;65.45;101186.63;5071154;28;20495;-44
2021/09/23 04:51:40;;;;;;;8.30;7.20;;;;;;;14.94;65.50;101183.97;5074667;28;20021;-44
2021/09/23 04:54:07;;;;;;;8.07;7.00;;;;;;;14.94;65.43;101176.00;5071523;28;20035;-45
2021/09/23 04:56:33;;;;;;;8.93;7.20;;;;;;;14.93;65.46;101184.91;5070479;28;20033;-44
2021/09/23 04:58:59;;;;;;;7.35;6.55;;;;;;;14.92;65.37;101183.16;5073898;28;20029;-44
2021/09/23 05:01:25;;;;;;;7.90;7.07;;;;;;;14.92;65.45;101198.19;5069675;28;20032;-44
2021/09/23 05:03:52;;;;;;;7.85;6.78;;;;;;;14.92;65.43;101184.91;5070150;28;20032;-44
2021/09/23 05:06:18;;;;;;;8.10;7.28;;;;;;;14.90;65.53;101184.94;5069126;28;20027;-44
2021/09/23 05:08:44;;;;;;;7.72;6.90;;;;;;;14.88;65.50;101187.63;5066839;28;20028;-44
2021/09/23 05:11:10;;;;;;;7.82;7.03;;;;;;;14.88;65.44;101179.66;5052533;28;20021;-44
2021/09/23 05:13:36;;;;;;;8.57;6.97;;;;;;;14.87;65.49;101164.66;5067203;28;20387;-44
2021/09/23 05:16:02;;;;;;;9.40;6.88;;;;;;;14.86;65.57;101165.56;5070843;28;20051;-44
2021/09/23 05:18:28;;;;;;;8.90;7.50;;;;;;;14.86;65.42;101159.34;5069788;28;20058;-44
2021/09/23 05:20:54;;;;;;;8.25;7.43;;;;;;;14.86;65.54;101162.00;5067236;28;20020;-44
2021/09/23 05:23:20;;;;;;;8.45;7.65;;;;;;;14.84;65.53;101170.00;5072700;28;20024;-44
2021/09/23 05:25:45;;;;;;;7.82;7.03;;;;;;;14.84;65.50;101174.47;5071914;28;20032;-44
2021/09/23 05:28:11;;;;;;;9.50;7.28;;;;;;;14.83;65.58;101168.25;5072006;28;20016;-44
2021/09/23 05:30:39;;;;;;;10.23;7.82;;;;;;;14.83;65.58;101175.34;5070973;28;20091;-44
2021/09/23 05:33:06;;;;;;;8.70;7.82;;;;;;;14.81;65.57;101171.88;5069828;28;20016;-45
2021/09/23 05:35:32;;;;;;;10.52;7.30;;;;;;;14.81;65.42;101164.75;5071788;28;20448;-44
2021/09/23 05:37:58;;;;;;;8.82;7.90;;;;;;;14.81;65.52;101163.91;5071250;28;20414;-44
2021/09/23 05:40:24;;;;;;;8.32;7.43;;;;;;;14.80;65.58;101160.34;5071874;28;20029;-44
2021/09/23 05:42:50;;;;;;;10.25;7.88;;;;;;;14.79;65.65;101161.25;5071001;28;20028;-44
2021/09/23 05:45:16;;;;;;;8.90;8.00;;;;;;;14.77;65.66;101147.13;5062922;28;20029;-44
2021/09/23 05:47:42;;;;;;;10.88;7.90;;;;;;;14.77;65.58;101147.13;5066519;28;20029;-44
2021/09/23 05:50:10;;;;;;;8.57;7.47;;;;;;;14.77;65.57;101148.91;5067959;28;20029;-44
2021/09/23 05:52:36;;;;;;;8.80;7.38;;;;;;;14.75;65.75;101149.78;5066896;28;20028;-44
2021/09/23 05:55:04;;;;;;;8.70;7.68;;;;;;;14.74;65.59;101156.00;5065359;28;20391;-44
2021/09/23 05:57:34;;;;;;;7.40;6.60;;;;;;;14.74;65.60;101169.28;5053395;28;20119;-44
2021/09/23 06:00:05;;;;;;;9.60;7.63;;;;;;;14.73;65.79;101162.22;5067684;28;20495;-45
2021/09/23 06:02:31;;;;;;;9.32;7.38;;;;;;;14.74;65.75;101152.50;5053273;28;20035;-44
2021/09/23 06:04:57;;;;;;;9.18;7.97;;;;;;;14.73;65.75;101145.41;5063386;28;20021;-44
2021/09/23 06:07:22;;;;;;;8.60;7.72;;;;;;;14.72;65.70;101130.38;5065549;28;20085;-44
2021/09/23 06:09:48;;;;;;;9.18;6.90;;;;;;;14.73;65.73;101129.47;5066994;28;20382;-44
2021/09/23 06:12:14;;;;;;;8.85;7.50;;;;;;;14.71;65.85;101124.19;5050358;28;20016;-44
2021/09/23 06:14:40;;;;;;;8.30;6.97;;;;;;;14.72;65.80;101127.75;5070413;28;20563;-44
2021/09/23 06:17:06;;;;;;;10.32;7.90;;;;;;;14.70;65.75;101125.09;5066874;28;20036;-44
2021/09/23 06:19:31;;;;;;;8.50;7.53;;;;;;;14.70;65.82;101130.41;5068727;28;20036;-44
2021/09/23 06:21:57;;;;;;;7.85;7.10;;;;;;;14.70;65.78;101138.38;5065958;28;20024;-44
2021/09/23 06:24:23;;;;;;;9.60;7.82;;;;;;;14.70;65.87;101134.84;5069503;28;20028;-45
2021/09/23 06:26:49;;;;;;;8.38;7.57;;;;;;;14.67;65.74;101146.41;5068176;28;20031;-44
2021/09/23 06:29:15;;;;;;;9.23;7.60;;;;;;;14.69;65.90;101144.59;5067513;28;20039;-44
2021/09/23 06:31:41;;;;;;;9.38;7.30;;;;;;;14.68;66.02;101145.50;5069470;28;20021;-44
2021/09/23 06:34:07;;;;;;;9.00;7.35;;;;;;;14.68;65.87;101148.16;5069550;28;20071;-44
2021/09/23 06:36:36;;;;;;;9.68;8.20;;;;;;;14.68;65.84;101140.22;5069424;28;20032;-44
2021/09/23 06:39:03;;;;;;;8.27;7.20;;;;;;;14.68;65.84;101132.25;5048782;28;20513;-44
2021/09/23 06:41:29;;;;;;;9.52;7.03;;;;;;;14.68;65.79;101132.25;5066789;28;20486;-44
2021/09/23 06:43:55;;;;;;;7.95;7.18;;;;;;;14.67;66.04;101126.97;5065566;28;20109;-44
2021/09/23 06:46:22;;;;;;;7.65;6.80;;;;;;;14.66;65.92;101123.41;5065385;28;20035;-44
2021/09/23 06:48:50;;;;;;;8.27;7.20;;;;;;;14.66;66.07;101125.19;5064879;28;20025;-44
2021/09/23 06:51:16;;;;;;;8.07;7.28;;;;;;;14.66;65.89;101123.41;5070005;28;20044;-44
2021/09/23 06:53:41;;;;;;;9.23;7.85;;;;;;;14.67;65.89;101119.00;5065940;28;20052;-45
2021/09/23 06:56:07;;;;;;;9.35;7.10;;;;;;;14.64;65.93;101119.91;5067190;28;20727;-44
2021/09/23 06:58:33;;;;;;;8.95;7.10;;;;;;;14.65;66.13;101126.09;5065497;28;20040;-45
2021/09/23 07:00:59;;;;;;;10.68;8.10;;;;;;;14.64;65.96;101122.56;5065677;28;20500;-44
2021/09/23 07:03:25;;;;;;;7.28;6.50;;;;;;;14.64;66.02;101111.94;5068930;28;20093;-44
2021/09/23 07:05:50;;;;;;;7.35;6.57;;;;;;;14.63;66.07;101108.44;5044149;28;20036;-44
2021/09/23 07:08:18;;;;;;;7.85;6.85;;;;;;;14.62;65.93;101113.75;5069862;28;20493;-44
2021/09/23 07:10:45;;;;;;;8.27;7.43;;;;;;;14.62;66.17;101119.06;5053852;28;20031;-44
2021/09/23 07:13:11;;;;;;;8.85;7.57;;;;;;;14.62;66.16;101111.09;5064494;28;20074;-44
2021/09/23 07:15:38;;;;;;;8.15;7.32;;;;;;;14.62;66.10;101108.47;5067863;28;20073;-44
2021/09/23 07:18:04;;;;;;;9.35;7.32;;;;;;;14.62;66.28;101095.19;5065819;28;20031;-44
2021/09/23 07:20:30;;;;;;;7.38;6.57;;;;;;;14.61;66.18;101091.63;5066703;28;20024;-45
2021/09/23 07:22:55;;;;;;;7.97;6.75;;;;;;;14.59;66.39;101079.31;5064422;28;20028;-44
2021/09/23 07:25:23;;;;;;;8.55;6.95;;;;;;;14.61;66.31;101073.06;5069771;28;20017;-44
2021/09/23 07:27:53;;;;;;;7.22;6.53;;;;;;;14.61;66.37;101064.25;5069247;28;20131;-44
2021/09/23 07:30:20;;;;;;;9.65;7.18;;;;;;;14.59;66.44;101061.63;5065338;28;20032;-44
2021/09/23 07:32:46;;;;;;;10.70;7.43;;;;;;;14.59;66.40;101058.06;5066958;28;20035;-44
2021/09/23 07:35:12;;;;;;;7.35;6.63;;;;;;;14.58;66.33;101054.53;5066891;28;20025;-44
2021/09/23 07:37:39;;;;;;;8.38;7.25;;;;;;;14.59;66.52;101061.63;5072571;28;20017;-45
2021/09/23 07:40:07;;;;;;;9.13;7.28;;;;;;;14.58;66.63;101072.25;5069822;28;20044;-45
2021/09/23 07:42:32;;;;;;;8.38;6.55;;;;;;;14.58;66.66;101077.56;5068878;28;20077;-45
2021/09/23 07:44:59;;;;;;;8.05;7.25;;;;;;;14.58;66.74;101085.53;5067592;28;20025;-45
2021/09/23 07:47:25;;;;;;;8.27;7.28;;;;;;;14.58;66.65;101093.50;5064033;28;20028;-45
2021/09/23 07:49:51;;;;;;;8.25;7.07;;;;;;;14.58;66.75;101088.19;5066440;28;20028;-45
2021/09/23 07:52:18;;;;;;;7.72;6.72;;;;;;;14.58;66.68;101078.41;5051068;28;20021;-45
2021/09/23 07:54:44;;;;;;;8.88;7.75;;;;;;;14.58;66.87;101089.03;5069457;28;20498;-45
2021/09/23 07:57:11;;;;;;;7.90;7.10;;;;;;;14.58;66.84;101085.53;5068465;28;20122;-45
2021/09/23 07:59:38;;;;;;;9.55;7.75;;;;;;;14.58;66.77;101090.84;5069729;28;20498;-45
2021/09/23 08:02:04;;;;;;;7.28;6.40;;;;;;;14.57;66.93;101075.81;5068966;28;20119;-45
2021/09/23 08:04:30;;;;;;;8.23;7.25;;;;;;;14.57;66.76;101078.47;5064655;28;20097;-45
2021/09/23 08:06:55;;;;;;;7.40;6.65;;;;;;;14.56;66.75;101074.94;5067231;28;20495;-44
2021/09/23 08:09:21;;;;;;;8.68;7.78;;;;;;;14.56;66.92;101072.28;5069059;28;20028;-45
2021/09/23 08:11:47;;;;;;;8.60;6.90;;;;;;;14.56;66.86;101058.13;5069488;28;20020;-45
2021/09/23 08:14:13;;;;;;;7.82;6.90;;;;;;;14.57;66.76;101059.91;5054167;28;20491;-45
2021/09/23 08:16:39;;;;;;;8.18;6.68;;;;;;;14.55;66.97;101051.09;5053639;28;20032;-45
2021/09/23 08:19:05;;;;;;;8.15;6.97;;;;;;;14.56;66.81;101052.81;5067247;28;20073;-44
2021/09/23 08:21:31;;;;;;;7.03;6.32;;;;;;;14.56;66.92;101045.75;5033482;28;20029;-45
2021/09/23 08:23:57;;;;;;;7.93;6.32;;;;;;;14.56;66.92;101047.50;5063812;28;20028;-44
2021/09/23 08:26:23;;;;;;;7.70;6.57;;;;;;;14.55;67.06;101036.03;5051666;28;20036;-45
2021/09/23 08:28:51;;;;;;;9.60;7.35;;;;;;;14.56;67.02;101031.59;5066737;28;20430;-44
2021/09/23 08:31:18;;;;;;;7.68;6.72;;;;;;;14.56;67.04;101037.78;5051134;28;20437;-45
2021/09/23 08:33:45;;;;;;;7.13;6.05;;;;;;;14.56;67.20;101036.91;5049804;28;20479;-44
2021/09/23 08:36:11;;;;;;;6.80;6.10;;;;;;;14.54;67.16;101030.75;5052631;28;20127;-45
2021/09/23 08:38:37;;;;;;;7.80;6.22;;;;;;;14.56;67.15;101023.63;5069433;28;20020;-44
2021/09/23 08:41:03;;;;;;;7.57;6.50;;;;;;;14.55;67.16;101017.47;5072946;28;20039;-45
2021/09/23 08:43:29;;;;;;;8.30;6.93;;;;;;;14.55;67.25;101008.63;5058429;28;20073;-45
2021/09/23 08:45:56;;;;;;;7.35;6.30;;;;;;;14.56;67.18;100999.75;5071913;28;20032;-45
2021/09/23 08:48:22;;;;;;;6.88;6.18;;;;;;;14.55;67.23;100990.03;5072456;28;20386;-45
2021/09/23 08:50:49;;;;;;;8.52;5.97;;;;;;;14.54;67.26;100996.25;5070235;28;20027;-44
2021/09/23 08:53:15;;;;;;;7.68;6.13;;;;;;;14.55;67.33;100987.38;5071647;28;20027;-44
2021/09/23 08:55:41;;;;;;;7.70;6.47;;;;;;;14.56;67.46;100978.50;5069985;28;20024;-45
2021/09/23 08:58:07;;;;;;;7.20;6.50;;;;;;;14.55;67.41;100976.75;5071073;28;20020;-44
2021/09/23 09:00:35;;;;;;;8.52;6.97;;;;;;;14.55;67.43;100974.13;5072346;28;20032;-45
2021/09/23 09:03:08;;;;;;;8.02;6.43;;;;;;;14.56;67.32;100963.47;5059109;28;20031;-44
2021/09/23 09:05:37;;;;;;;8.13;6.30;;;;;;;14.57;67.54;100953.75;5071785;28;20032;-44
2021/09/23 09:08:16;;;;;;;7.15;6.25;;;;;;;14.56;67.64;100941.34;5072224;28;20020;-45
2021/09/23 09:10:41;;;;;;;8.40;6.72;;;;;;;14.55;67.60;100934.31;5068047;28;20086;-45
2021/09/23 09:13:08;;;;;;;7.55;6.25;;;;;;;14.56;67.66;100938.69;5054851;28;20386;-45
2021/09/23 09:15:39;;;;;;;8.38;6.70;;;;;;;14.54;67.55;100916.63;5071242;28;20115;-44
2021/09/23 09:18:19;;;;;;;6.32;5.70;;;;;;;14.56;67.67;100920.13;5071899;28;20027;-45
2021/09/23 09:21:00;;;;;;;6.32;5.72;;;;;;;14.57;67.76;100916.56;5072277;28;20395;-45
2021/09/23 09:23:39;;;;;;;6.85;5.43;;;;;;;14.56;67.75;100904.19;5071566;28;20765;-45
2021/09/23 09:26:05;;;;;;;8.82;6.65;;;;;;;14.57;67.63;100913.94;5070592;28;20060;-45
2021/09/23 09:28:31;;;;;;;6.95;6.03;;;;;;;14.57;67.82;100906.81;5069187;28;20020;-45
2021/09/23 09:30:59;;;;;;;6.68;5.63;;;;;;;14.57;67.82;100903.31;5071780;28;20032;-45
2021/09/23 09:33:45;;;;;;;6.38;5.75;;;;;;;14.57;67.84;100884.72;5071829;28;20029;-45
2021/09/23 09:36:35;;;;;;;7.75;5.78;;;;;;;14.58;67.74;100883.81;5072208;28;20158;-45
2021/09/23 09:39:13;;;;;;;7.03;6.05;;;;;;;14.58;67.70;100883.81;5059406;28;20107;-45
2021/09/23 09:41:42;;;;;;;7.82;6.40;;;;;;;14.58;68.00;100875.84;5069581;28;20107;-45
2021/09/23 09:44:10;;;;;;;8.60;6.15;;;;;;;14.57;68.07;100869.66;5067886;28;20035;-45
2021/09/23 09:46:41;;;;;;;7.78;6.38;;;;;;;14.58;67.99;100875.84;5067926;28;20021;-44
2021/09/23 09:49:07;;;;;;;7.35;6.47;;;;;;;14.58;68.08;100868.75;5056654;28;20021;-45
2021/09/23 09:51:47;;;;;;;6.43;5.47;;;;;;;14.60;67.94;100866.06;5071890;28;20071;-45
2021/09/23 09:54:15;;;;;;;6.50;5.90;;;;;;;14.59;68.17;100861.66;5071328;28;20463;-44
2021/09/23 09:56:43;;;;;;;6.07;5.45;;;;;;;14.59;68.03;100862.53;5070079;28;20078;-45
2021/09/23 09:59:12;;;;;;;6.30;5.70;;;;;;;14.60;68.08;100858.97;5053328;28;20060;-45
2021/09/23 10:01:42;;;;;;;6.32;5.72;;;;;;;14.60;68.07;100853.66;5071341;28;20024;-45
2021/09/23 10:04:09;;;;;;;8.32;5.60;;;;;;;14.61;68.00;100844.78;5068994;28;20027;-45
2021/09/23 10:06:37;;;;;;;5.72;5.13;;;;;;;14.62;68.00;100848.31;5068485;28;20040;-45
2021/09/23 10:09:03;;;;;;;7.82;5.60;;;;;;;14.62;68.13;100840.38;5056622;28;20042;-45
2021/09/23 10:11:29;;;;;;;5.65;5.05;;;;;;;14.63;68.01;100852.72;5054630;28;20104;-45
2021/09/23 10:13:56;;;;;;;9.73;5.53;;;;;;;14.63;67.99;100839.44;5055256;28;20121;-45
2021/09/23 10:16:22;;;;;;;5.50;4.88;;;;;;;14.63;67.84;100834.13;5071215;28;20027;-45
2021/09/23 10:18:49;;;;;;;7.57;5.30;;;;;;;14.63;67.85;100824.41;5070798;28;20027;-45
2021/09/23 10:21:15;;;;;;;6.18;4.93;;;;;;;14.63;67.85;100820.88;5069085;28;20094;-44
2021/09/23 10:23:42;;;;;;;5.68;4.50;;;;;;;14.64;67.99;100811.97;5069872;28;20579;-45
2021/09/23 10:26:09;;;;;;;5.78;5.03;;;;;;;14.64;67.86;100819.94;5071338;28;20406;-44
2021/09/23 10:28:36;;;;;;;7.57;4.35;;;;;;;14.64;67.83;100817.28;5056072;28;20016;-45
2021/09/23 10:31:09;;;;;;;5.60;4.88;;;;;;;14.65;67.86;100811.09;5054666;28;20222;-45
2021/09/23 10:33:34;;;;;;;9.43;4.63;;;;;;;14.65;67.90;100818.19;5070672;28;20668;-44
2021/09/23 10:36:00;;;;;;;5.10;4.63;;;;;;;14.66;67.95;100798.69;5070804;28;20051;-45
2021/09/23 10:38:28;;;;;;;5.32;4.82;;;;;;;14.66;67.89;100793.38;5051595;28;20074;-45
2021/09/23 10:40:54;;;;;;;4.82;4.38;;;;;;;14.66;67.84;100794.25;5069904;28;20027;-45
2021/09/23 10:43:20;;;;;;;7.43;5.07;;;;;;;14.66;67.88;100774.78;5066588;28;20037;-45
2021/09/23 10:45:48;;;;;;;4.95;4.45;;;;;;;14.66;67.96;100778.31;5068344;28;20394;-45
2021/09/23 10:48:14;;;;;;;4.38;3.97;;;;;;;14.67;67.92;100763.28;5070061;28;20031;-45
2021/09/23 10:50:41;;;;;;;6.43;4.10;;;;;;;14.67;67.95;100764.13;5067279;28;20026;-45
2021/09/23 10:53:09;;;;;;;7.72;4.65;;;;;;;14.67;67.99;100758.81;5069271;28;20043;-45
2021/09/23 10:55:38;;;;;;;6.40;4.53;;;;;;;14.68;67.91;100760.59;5066727;28;20040;-45
2021/09/23 10:58:07;;;;;;;14.32;4.82;;;;;;;14.67;67.89;100748.22;5065621;28;20529;-45
2021/09/23 11:00:33;;;;;;;7.05;4.53;;;;;;;14.68;67.91;100738.47;5063038;28;20050;-45
2021/09/23 11:03:05;;;;;;;5.47;3.88;;;;;;;14.68;67.85;100728.75;5069698;28;20051;-45
2021/09/23 11:05:31;;;;;;;5.20;4.40;;;;;;;14.67;67.84;100726.97;5066171;28;20239;-45
2021/09/23 11:07:58;;;;;;;5.45;4.43;;;;;;;14.68;67.91;100718.13;5067016;28;20046;-45
2021/09/23 11:10:25;;;;;;;6.63;4.40;;;;;;;14.68;67.95;100707.50;5050927;28;20063;-45
2021/09/23 11:12:53;;;;;;;6.65;4.63;;;;;;;14.70;67.79;100710.97;5068891;28;20067;-45
2021/09/23 11:15:22;;;;;;;7.20;4.72;;;;;;;14.69;67.93;100711.91;5067339;28;20035;-45
2021/09/23 11:17:49;;;;;;;6.53;4.25;;;;;;;14.69;67.83;100706.59;5067750;28;20486;-44
2021/09/23 11:20:20;;;;;;;7.68;4.65;;;;;;;14.70;67.69;100691.50;5050998;28;20066;-45
2021/09/23 11:22:58;;;;;;;4.57;4.18;;;;;;;14.71;67.89;100702.09;5065167;28;20028;-44
2021/09/23 11:25:29;;;;;;;6.63;4.40;;;;;;;14.72;67.85;100695.88;5066889;28;20494;-44